Mmabatho, Mahikeng Mmabatho Airport (FAMM)

NameMahikeng Mmabatho Airport
CityMmabatho
CountrySouth Africa
ICAOFAMM
IATAMBD
Altitude1274 m
CoordinatesGoogle Map
Live Air TrafficLiveATC.net
METARFAMM 251700Z 07003KT 9999 FEW035 BKN100 17/11 Q1020 NOSIG
2020-04-25 17:00:00 Wind: East-Northeast (70°) 1.54 m/s - Visibility: > 10000 m - Temperature: 17 °C - Dew point: 11 °C - Humidity: 68% - Pressure: 1020 hPa
Statistics

The table below shows the detailed information of all flights to/from Mmabatho, Mahikeng Mmabatho Airport (FAMM).